Nrp Polar — CTEJ — position and weather

sailwx.info

Track history (hours):
 
Tides and Currents Weather Stations Pressure Air Temp Water Temp Dewpoint Dewpoint Depression Visibility Wind Speed Wind Dir Waves Ship Positions

Nrp Polar

Last reported at 2015-May-01 15:04 UTC. Time now 2015-May-06 06:26 UTC.
Position N 38°40' W 009°09'.

; draft 3 m.

Type: Sailing vessel. MMSI: 263142000.

Date/timePositionNaut miles runAvg speedWind from/ knotsBaromVisibWave heightAir tempDewpointWater temp
2015-May-01 15:04N 38°40' W 009°09'1 1.1
2015-May-01 14:33N 38°41' W 009°08'1 1.3
2015-May-01 13:33N 38°41' W 009°10'0 0.0
2015-May-01 12:33N 38°41' W 009°10'1 0.8
2015-May-01 11:33N 38°41' W 009°11'2 2.3
2015-May-01 10:33N 38°42' W 009°08'2 1.8
2015-May-01 09:33N 38°41' W 009°08'1 0.0
2015-Apr-29 10:10N 38°40' W 009°09'  
2015-Apr-24 17:33N 38°40' W 009°09'3 3.5
2015-Apr-24 16:33N 38°41' W 009°05'1 1.1
2015-Apr-24 15:33N 38°41' W 009°06'2 2.3
2015-Apr-24 14:33N 38°40' W 009°09'2 1.9
2015-Apr-24 13:33N 38°42' W 009°08'5 5.2
2015-Apr-24 12:33N 38°41' W 009°14'5 4.9
2015-Apr-24 11:33N 38°41' W 009°08'1 1.0
2015-Apr-24 10:33N 38°40' W 009°09'0 0.0
2015-Apr-24 09:33N 38°40' W 009°09'0 0.0
2015-Apr-23 15:05N 38°40' W 009°09'0 0.0
2015-Apr-23 14:33N 38°40' W 009°09'  
Track history (hours):
 
Tides and Currents Weather Stations Pressure Air Temp Water Temp Dewpoint Dewpoint Depression Visibility Wind Speed Wind Dir Waves Ship Positions

Nrp Polar

Last reported at 2015-May-01 15:04 UTC. Time now 2015-May-06 06:26 UTC.
Position N 38°40' W 009°09'.

; draft 3 m.

Type: Sailing vessel. MMSI: 263142000.

Date/timePositionNaut miles runAvg speedWind from/ knotsBaromVisibWave heightAir tempDewpointWater temp
2015-May-01 15:04N 38°40' W 009°09'1 1.1
2015-May-01 14:33N 38°41' W 009°08'1 1.3
2015-May-01 13:33N 38°41' W 009°10'0 0.0
2015-May-01 12:33N 38°41' W 009°10'1 0.8
2015-May-01 11:33N 38°41' W 009°11'2 2.3
2015-May-01 10:33N 38°42' W 009°08'2 1.8
2015-May-01 09:33N 38°41' W 009°08'1 0.0
2015-Apr-29 10:10N 38°40' W 009°09'  
2015-Apr-24 17:33N 38°40' W 009°09'3 3.5
2015-Apr-24 16:33N 38°41' W 009°05'1 1.1
2015-Apr-24 15:33N 38°41' W 009°06'2 2.3
2015-Apr-24 14:33N 38°40' W 009°09'2 1.9
2015-Apr-24 13:33N 38°42' W 009°08'5 5.2
2015-Apr-24 12:33N 38°41' W 009°14'5 4.9
2015-Apr-24 11:33N 38°41' W 009°08'1 1.0
2015-Apr-24 10:33N 38°40' W 009°09'0 0.0
2015-Apr-24 09:33N 38°40' W 009°09'0 0.0
2015-Apr-23 15:05N 38°40' W 009°09'0 0.0
2015-Apr-23 14:33N 38°40' W 009°09'  

Dump ship's entire track history